KJKL

Details ICAO KJKL
Name JULIAN CARROLL
Region United States
Timezone America/New_York (UTC-4.0)
Plans Departing 1
Arriving 3
Stats Elevation 1,381 ft / 421 m (AMSL)
Location 37.593859° -83.317241°
Runways 1
Magnetic Variation 6.492° W
Sunrise 2018-05-22 10:20:04 UTC / 2018-05-22 06:20:04 Local
Sunset 2018-05-23 00:42:41 UTC / 2018-05-22 20:42:41 Local
Advertisement - Login to hide

Runways

ID Width Length Bearing (true) Bearing (mag) Surface Threshold Offset Overrun Length
01 75 ft / 23 m 4,408 ft / 1,344 m 7.87° 14.36° Asphalt 0 ft / 0 m 0 ft / 0 m
19 75 ft / 23 m 4,408 ft / 1,344 m 187.88° 194.37° Asphalt 0 ft / 0 m 0 ft / 0 m

Map

Weather


0- 5 10 15 20 25 30 35+ Temperature / ° C

Clouds and Precipitation
Forecast for 2018-05-23 00:00 UTC. Updated 36 minutes ago

Ground ~20,000 ft ~40,000 ft Winds

METAR

KJKL 222253Z AUTO 00000KT 10SM CLR 23/20 A3005 RMK AO2 SLP162 T02330200

TAF

KJKL 222339Z 2300/2324 00000KT P6SM SCT010 BKN150 FM230100 00000KT P6SM SCT010 BKN200 FM230600 00000KT 2SM BR SCT003 FM230800 00000KT 1/2SM FG SCT003 FM231200 00000KT 2SM BR BKN004 FM231400 00000KT P6SM BKN015 FM231500 00000KT P6SM BKN020 FM231700 VRB03KT P6SM SCT040

Frequencies

Recorded 118.37 MHz ASOS
Unicom 122.80 MHz CTAF/UNICOM
Warning: Do not use this data for real-world aviation or navigation. No guarantee of current accuracy is given.